Terminal Aerodrome Forecast
Issued by NWS

Home | Current Version | Previous Version | Text Only | Print | Product List | Glossary On
Versions: 1 2 3 4 5 6 7 8 9 10 11 12 13 14
000
FTUS42 KGSP 292339
TAFGMU
TAF
KGMU 292339Z 3000/3024 27005KT P6SM BKN070 OVC120
     FM300200 25004KT P6SM VCSH BKN060
     FM300600 VRB03KT P6SM OVC060
     FM300800 VRB03KT 3SM BR SCT003 OVC006
     FM301500 24004KT P6SM SCT011 OVC035
     FM301800 23007KT P6SM BKN035 PROB30 3018/3024 4SM -TSRA
      OVC025CB=

USA.gov is the U.S. government's official web portal to all federal, state and local government web resources and services.